Time;durP1;ratioP1;P1;durP2;ratioP2;P2;SDS_P1;SDS_P2;PMS_P1;PMS_P2;Temp;Humidity;BMP_temperature;BMP_pressure;BME280_temperature;BME280_humidity;BME280_pressure;Samples;Min_cycle;Max_cycle;Signal;HPM_P1;HPM_P2
2022/10/23 00:02:19;;;;;;;4.70;2.83;;;;;;;19.56;56.51;101296.31;5043345;28;20033;-62
2022/10/23 00:04:45;;;;;;;6.30;3.13;;;;;;;19.60;56.62;101311.94;5043463;28;20472;-63
2022/10/23 00:07:10;;;;;;;6.70;3.47;;;;;;;19.56;56.51;101293.66;5043157;28;20029;-61
2022/10/23 00:09:35;;;;;;;5.22;3.03;;;;;;;19.58;56.34;101294.41;5043142;28;20349;-61
2022/10/23 00:12:01;;;;;;;6.63;3.00;;;;;;;19.48;56.61;101280.22;5043437;28;20024;-63
2022/10/23 00:14:26;;;;;;;5.63;2.73;;;;;;;19.53;56.49;101285.97;5042837;28;20716;-63
2022/10/23 00:16:51;;;;;;;5.87;2.70;;;;;;;19.50;56.82;101288.91;5042893;28;20340;-62
2022/10/23 00:19:17;;;;;;;6.30;3.00;;;;;;;19.51;56.55;101289.72;5042524;28;20262;-62
2022/10/23 00:21:42;;;;;;;6.20;2.60;;;;;;;19.47;56.61;101291.78;5042825;28;20262;-63
2022/10/23 00:24:08;;;;;;;5.75;2.60;;;;;;;19.48;56.59;101297.91;5041608;28;20061;-61
2022/10/23 00:26:33;;;;;;;5.32;2.67;;;;;;;19.54;56.58;101310.63;5042993;28;20028;-60
2022/10/23 00:28:59;;;;;;;5.50;2.72;;;;;;;19.52;56.47;101292.25;5042582;28;20025;-60
2022/10/23 00:31:25;;;;;;;5.55;2.85;;;;;;;19.53;56.45;101301.84;5041002;28;20503;-61
2022/10/23 00:33:51;;;;;;;6.28;2.88;;;;;;;19.31;56.80;101254.31;5042348;28;20574;-60
2022/10/23 00:36:18;;;;;;;8.80;2.92;;;;;;;19.31;56.51;101264.88;5042732;28;20028;-61
2022/10/23 00:38:45;;;;;;;7.15;2.65;;;;;;;19.49;56.16;101295.13;5042345;28;20025;-62
2022/10/23 00:41:16;;;;;;;6.57;2.90;;;;;;;19.44;56.32;101289.38;5041248;28;20143;-62
2022/10/23 00:44:00;;;;;;;6.80;2.80;;;;;;;19.49;56.49;101286.38;5042757;28;20039;-61
2022/10/23 00:46:26;;;;;;;6.97;2.70;;;;;;;19.25;56.50;101252.16;5042494;28;20087;-62
2022/10/23 00:48:51;;;;;;;6.38;2.78;;;;;;;19.49;56.55;101287.22;5042560;28;20045;-63
2022/10/23 00:51:17;;;;;;;6.00;2.58;;;;;;;19.49;56.59;101291.66;5042302;28;20094;-62
2022/10/23 00:53:44;;;;;;;7.57;2.88;;;;;;;19.42;56.44;101279.88;5042807;28;20033;-61
2022/10/23 00:56:10;;;;;;;6.38;2.60;;;;;;;19.47;56.66;101291.78;5042051;28;20028;-61
2022/10/23 00:58:35;;;;;;;6.75;2.67;;;;;;;19.46;56.52;101290.09;5042196;28;20071;-63
2022/10/23 01:01:00;;;;;;;6.80;3.20;;;;;;;19.47;56.50;101288.28;5041978;28;20032;-61
2022/10/23 01:03:28;;;;;;;7.67;2.50;;;;;;;19.44;56.45;101277.94;5042194;28;20083;-63
2022/10/23 01:06:04;;;;;;;5.20;2.50;;;;;;;19.44;56.36;101283.22;5042144;28;20605;-63
2022/10/23 01:09:01;;;;;;;4.97;2.55;;;;;;;19.45;56.65;101279.63;5041803;28;20385;-60
2022/10/23 01:11:32;;;;;;;5.35;2.60;;;;;;;19.43;56.57;101284.22;5037277;28;20155;-64
2022/10/23 01:14:10;;;;;;;6.28;3.58;;;;;;;19.44;56.55;101284.09;5042256;28;20035;-61
2022/10/23 01:16:59;;;;;;;5.47;2.70;;;;;;;19.44;56.26;101285.88;5041796;28;20187;-63
2022/10/23 01:19:49;;;;;;;5.18;2.42;;;;;;;19.43;56.22;101282.41;5041419;28;20037;-61
2022/10/23 01:22:52;;;;;;;5.10;2.50;;;;;;;19.42;56.53;101286.00;5041847;28;20040;-62
2022/10/23 01:25:45;;;;;;;5.60;2.47;;;;;;;19.42;56.18;101278.06;5042018;28;20029;-61
2022/10/23 01:28:19;;;;;;;5.57;2.90;;;;;;;19.42;56.41;101280.72;5041536;28;20171;-60
2022/10/23 01:30:45;;;;;;;6.65;2.85;;;;;;;19.37;56.23;101256.47;5041998;28;20025;-59
2022/10/23 01:33:28;;;;;;;6.47;2.53;;;;;;;19.36;56.27;101255.63;5041601;28;20136;-63
2022/10/23 01:36:05;;;;;;;5.72;2.60;;;;;;;19.34;56.35;101251.41;5041603;28;20025;-61
2022/10/23 01:38:37;;;;;;;6.80;2.83;;;;;;;19.34;56.26;101246.13;5040831;28;20059;-60
2022/10/23 01:41:10;;;;;;;5.45;2.30;;;;;;;19.37;56.18;101251.19;5041622;28;20021;-62
2022/10/23 01:44:03;;;;;;;5.97;2.50;;;;;;;19.31;56.27;101235.81;5041561;28;20033;-62
2022/10/23 01:46:30;;;;;;;5.80;2.90;;;;;;;19.37;56.05;101238.78;5041669;28;20041;-62
2022/10/23 01:48:58;;;;;;;5.13;2.35;;;;;;;19.32;56.08;101229.56;5041052;28;20079;-62
2022/10/23 01:51:26;;;;;;;5.95;2.50;;;;;;;19.34;56.24;101228.50;5040751;28;20048;-63
2022/10/23 01:53:57;;;;;;;5.00;2.58;;;;;;;19.37;56.18;101238.78;5041173;28;20381;-62
2022/10/23 01:56:27;;;;;;;5.40;2.42;;;;;;;19.27;56.29;101218.53;5041103;28;20052;-62
2022/10/23 01:58:55;;;;;;;5.15;2.60;;;;;;;19.31;56.25;101227.88;5040978;28;20033;-63
2022/10/23 02:01:23;;;;;;;5.65;2.40;;;;;;;19.26;56.40;101214.19;5040919;28;20061;-63
2022/10/23 02:03:49;;;;;;;6.55;2.45;;;;;;;19.29;56.15;101235.09;5041092;28;20036;-61
2022/10/23 02:06:15;;;;;;;5.90;2.55;;;;;;;19.27;56.09;101224.66;5041111;28;20101;-60
2022/10/23 02:08:40;;;;;;;4.50;2.40;;;;;;;19.26;56.05;101228.25;5041301;28;20408;-61
2022/10/23 02:11:15;;;;;;;6.57;2.60;;;;;;;19.28;56.11;101225.47;5040931;28;20467;-62
2022/10/23 02:13:50;;;;;;;6.78;2.40;;;;;;;19.27;56.06;101221.19;5041213;28;20033;-61
2022/10/23 02:16:47;;;;;;;4.57;2.20;;;;;;;19.33;56.14;101233.91;5040901;28;20025;-62
2022/10/23 02:19:31;;;;;;;5.28;2.38;;;;;;;19.32;56.26;101221.66;5038799;28;20033;-60
2022/10/23 02:22:09;;;;;;;5.88;2.60;;;;;;;19.20;56.25;101208.47;5041094;28;20470;-61
2022/10/23 02:24:51;;;;;;;4.68;2.15;;;;;;;19.31;56.34;101226.09;5040726;28;20036;-62
2022/10/23 02:27:22;;;;;;;6.85;2.30;;;;;;;19.32;56.29;101227.75;5041075;28;20062;-63
2022/10/23 02:29:52;;;;;;;6.13;2.55;;;;;;;19.31;56.13;101220.81;5041082;28;20044;-62
2022/10/23 02:32:20;;;;;;;5.63;2.63;;;;;;;19.25;56.06;101204.59;5040566;28;20037;-63
2022/10/23 02:34:46;;;;;;;5.25;2.22;;;;;;;19.23;56.19;101206.53;5040991;28;20064;-62
2022/10/23 02:37:12;;;;;;;5.47;2.42;;;;;;;19.26;56.15;101208.91;5040443;28;20032;-63
2022/10/23 02:39:37;;;;;;;5.20;2.10;;;;;;;19.27;56.37;101205.31;5040905;28;20079;-62
2022/10/23 02:42:11;;;;;;;5.88;2.13;;;;;;;19.27;56.32;101192.13;5040666;28;20107;-61
2022/10/23 02:44:58;;;;;;;5.75;2.30;;;;;;;19.29;56.22;101187.53;5040958;28;20049;-62
2022/10/23 02:47:39;;;;;;;5.15;2.33;;;;;;;19.21;56.24;101159.91;5040990;28;20037;-62
2022/10/23 02:50:20;;;;;;;5.25;2.40;;;;;;;19.29;56.35;101167.22;5041026;28;20039;-61
2022/10/23 02:53:05;;;;;;;5.35;2.20;;;;;;;19.26;56.34;101156.06;5040647;28;20044;-61
2022/10/23 02:56:01;;;;;;;4.88;2.25;;;;;;;19.26;56.13;101154.25;5039344;28;20801;-63
2022/10/23 02:58:29;;;;;;;5.97;2.13;;;;;;;19.28;56.46;101146.22;5040793;28;20107;-62
2022/10/23 03:01:04;;;;;;;4.22;2.28;;;;;;;19.25;56.19;101142.03;5040336;28;20127;-63
2022/10/23 03:03:34;;;;;;;6.05;2.35;;;;;;;19.27;56.48;101140.09;5042603;28;20025;-62
2022/10/23 03:06:00;;;;;;;4.32;2.30;;;;;;;19.20;56.25;101125.69;5044690;28;20021;-60
2022/10/23 03:08:25;;;;;;;6.00;2.38;;;;;;;19.20;56.42;101120.41;5044277;28;20036;-62
2022/10/23 03:10:50;;;;;;;5.15;2.30;;;;;;;19.26;56.17;101129.66;5044313;28;20044;-61
2022/10/23 03:13:16;;;;;;;5.95;2.38;;;;;;;19.19;56.40;101124.03;5044365;28;20040;-62
2022/10/23 03:15:41;;;;;;;4.95;2.30;;;;;;;19.27;56.39;101128.69;5044398;28;20917;-62
2022/10/23 03:18:06;;;;;;;6.82;2.30;;;;;;;19.27;56.35;101128.69;5044002;28;20051;-62
2022/10/23 03:20:32;;;;;;;4.60;2.22;;;;;;;19.23;56.50;101114.03;5044175;28;20393;-61
2022/10/23 03:22:57;;;;;;;6.78;2.70;;;;;;;19.26;56.31;101124.38;5043608;28;20070;-62
2022/10/23 03:25:22;;;;;;;5.43;2.40;;;;;;;19.20;56.31;101110.69;5044271;28;20126;-62
2022/10/23 03:27:48;;;;;;;5.18;2.35;;;;;;;19.25;56.17;101123.53;5044377;28;20602;-62
2022/10/23 03:30:13;;;;;;;4.53;2.42;;;;;;;19.18;56.35;101103.84;5043833;28;20115;-62
2022/10/23 03:32:38;;;;;;;5.72;2.10;;;;;;;19.18;56.13;101101.22;5043907;28;20029;-63
2022/10/23 03:35:04;;;;;;;3.90;2.10;;;;;;;19.25;56.24;101115.59;5044065;28;20036;-63
2022/10/23 03:37:29;;;;;;;4.97;2.17;;;;;;;19.21;56.09;101107.06;5043767;28;20305;-61
2022/10/23 03:39:54;;;;;;;4.53;1.97;;;;;;;19.24;56.08;101103.34;5043538;28;20028;-62
2022/10/23 03:42:20;;;;;;;4.60;2.10;;;;;;;19.18;56.17;101096.78;5043744;28;20254;-61
2022/10/23 03:44:45;;;;;;;5.20;2.22;;;;;;;19.16;56.14;101088.13;5043590;28;20465;-59
2022/10/23 03:47:11;;;;;;;4.47;2.30;;;;;;;19.24;56.26;101097.25;5043887;28;20036;-62
2022/10/23 03:49:37;;;;;;;4.10;2.20;;;;;;;19.20;56.39;101088.69;5043733;28;20112;-62
2022/10/23 03:52:03;;;;;;;4.55;2.38;;;;;;;19.24;56.36;101098.06;5043733;28;20033;-64
2022/10/23 03:54:28;;;;;;;4.60;2.35;;;;;;;19.16;56.21;101077.56;5043233;28;20074;-64
2022/10/23 03:56:54;;;;;;;5.75;2.20;;;;;;;19.15;56.30;101083.81;5043519;28;20480;-62
2022/10/23 03:59:19;;;;;;;4.00;1.90;;;;;;;19.17;56.54;101075.78;5043299;28;20029;-62
2022/10/23 04:01:45;;;;;;;5.15;2.10;;;;;;;19.14;56.31;101054.88;5043655;28;20107;-62
2022/10/23 04:04:11;;;;;;;5.40;2.30;;;;;;;19.13;56.02;101059.31;5043156;28;20163;-63
2022/10/23 04:06:36;;;;;;;4.00;2.00;;;;;;;19.14;56.27;101054.88;5043390;28;20021;-61
2022/10/23 04:09:02;;;;;;;6.70;2.67;;;;;;;19.24;56.04;101069.00;5042951;28;20426;-61
2022/10/23 04:11:28;;;;;;;4.53;2.00;;;;;;;19.18;56.14;101051.88;5043134;28;20029;-60
2022/10/23 04:13:53;;;;;;;4.20;1.88;;;;;;;19.23;56.35;101055.91;5042552;28;20033;-62
2022/10/23 04:16:18;;;;;;;5.87;2.50;;;;;;;19.21;56.30;101048.94;5043511;28;20388;-62
2022/10/23 04:18:44;;;;;;;4.63;1.95;;;;;;;19.15;56.21;101045.97;5042942;28;20289;-61
2022/10/23 04:21:10;;;;;;;5.65;2.20;;;;;;;19.11;56.01;101040.13;5043284;28;20068;-61
2022/10/23 04:23:35;;;;;;;4.97;2.05;;;;;;;19.12;56.28;101051.50;5042880;28;20029;-63
2022/10/23 04:26:01;;;;;;;3.80;1.90;;;;;;;19.14;56.40;101050.44;5043033;28;20044;-61
2022/10/23 04:28:26;;;;;;;5.43;2.65;;;;;;;19.21;56.17;101070.06;5042856;28;20215;-61
2022/10/23 04:30:52;;;;;;;4.10;1.92;;;;;;;19.21;56.41;101070.06;5042630;28;20106;-63
2022/10/23 04:33:18;;;;;;;4.57;2.20;;;;;;;19.17;56.37;101058.09;5042989;28;20063;-63
2022/10/23 04:35:43;;;;;;;4.85;2.20;;;;;;;19.14;56.38;101053.06;5042678;28;20072;-61
2022/10/23 04:38:09;;;;;;;3.85;1.90;;;;;;;19.20;56.11;101062.28;5042420;28;20029;-62
2022/10/23 04:40:34;;;;;;;5.35;2.25;;;;;;;19.14;56.30;101050.44;5042264;28;20021;-62
2022/10/23 04:42:59;;;;;;;4.38;2.22;;;;;;;19.20;56.30;101052.56;5043042;28;20259;-62
2022/10/23 04:45:25;;;;;;;5.22;2.25;;;;;;;19.16;56.24;101048.50;5042465;28;20037;-63
2022/10/23 04:47:52;;;;;;;4.32;2.10;;;;;;;19.21;56.30;101051.59;5042599;28;20052;-61
2022/10/23 04:50:18;;;;;;;4.97;2.25;;;;;;;19.12;56.14;101033.88;5042392;28;20462;-62
2022/10/23 04:52:43;;;;;;;4.28;2.30;;;;;;;19.19;56.39;101048.25;5042436;28;20056;-62
2022/10/23 04:55:09;;;;;;;4.15;2.08;;;;;;;19.14;56.36;101042.50;5042247;28;20087;-61
2022/10/23 04:57:34;;;;;;;4.90;2.37;;;;;;;19.19;56.43;101048.25;5042160;28;20059;-62
2022/10/23 05:00:00;;;;;;;5.03;2.10;;;;;;;19.12;56.28;101033.00;5042422;28;20764;-63
2022/10/23 05:02:26;;;;;;;4.85;2.10;;;;;;;19.15;56.38;101032.75;5042276;28;20051;-62
2022/10/23 05:04:52;;;;;;;5.32;2.10;;;;;;;18.99;56.33;101009.41;5042483;28;20025;-63
2022/10/23 05:07:17;;;;;;;4.03;2.08;;;;;;;19.19;56.18;101045.59;5042149;28;20036;-62
2022/10/23 05:09:42;;;;;;;4.13;2.00;;;;;;;19.14;56.29;101039.03;5042201;28;20028;-63
2022/10/23 05:12:07;;;;;;;3.80;1.73;;;;;;;19.12;56.22;101027.72;5042494;28;20108;-63
2022/10/23 05:14:33;;;;;;;5.35;1.90;;;;;;;19.19;56.38;101042.13;5042177;28;20389;-60
2022/10/23 05:17:02;;;;;;;3.90;1.90;;;;;;;19.17;56.48;101030.84;5041989;28;20025;-63
2022/10/23 05:19:35;;;;;;;4.82;2.20;;;;;;;19.11;56.36;101012.88;5041772;28;20254;-61
2022/10/23 05:22:01;;;;;;;5.43;2.17;;;;;;;19.12;56.23;101019.81;5042009;28;20033;-62
2022/10/23 05:24:26;;;;;;;3.40;1.73;;;;;;;19.16;55.98;101021.25;5041587;28;20033;-62
2022/10/23 05:26:52;;;;;;;4.45;2.03;;;;;;;19.17;56.26;101025.56;5041393;28;20037;-60
2022/10/23 05:29:18;;;;;;;4.03;2.00;;;;;;;19.18;56.32;101028.09;5041857;28;20025;-62
2022/10/23 05:31:45;;;;;;;4.40;1.80;;;;;;;19.16;56.22;101022.06;5041694;28;20040;-61
2022/10/23 05:34:13;;;;;;;6.45;1.98;;;;;;;19.10;56.60;101013.81;5041607;28;20037;-61
2022/10/23 05:36:38;;;;;;;5.10;1.83;;;;;;;19.11;56.45;101012.88;5041549;28;20029;-62
2022/10/23 05:39:04;;;;;;;3.97;1.77;;;;;;;19.11;56.17;101002.31;5041592;28;20047;-63
2022/10/23 05:41:30;;;;;;;5.88;1.83;;;;;;;19.17;56.46;101015.00;5041226;28;20029;-62
2022/10/23 05:43:55;;;;;;;5.00;2.10;;;;;;;19.18;56.25;101014.88;5041561;28;20067;-62
2022/10/23 05:46:22;;;;;;;4.17;1.90;;;;;;;19.18;56.14;101011.38;5041359;28;20033;-64
2022/10/23 05:48:50;;;;;;;4.45;1.80;;;;;;;19.12;56.42;101002.19;5041509;28;20319;-62
2022/10/23 05:51:20;;;;;;;3.85;1.75;;;;;;;19.15;56.35;101001.94;5041418;28;20029;-63
2022/10/23 05:53:46;;;;;;;3.67;1.70;;;;;;;19.14;56.51;100999.41;5041449;28;20119;-62
2022/10/23 05:56:12;;;;;;;4.15;2.00;;;;;;;19.11;56.57;100991.75;5041395;28;20155;-62
2022/10/23 05:58:37;;;;;;;6.22;1.88;;;;;;;19.18;56.14;100990.25;5041292;28;20139;-63
2022/10/23 06:01:10;;;;;;;3.30;1.73;;;;;;;19.15;56.23;100988.72;5041179;28;20095;-62
2022/10/23 06:03:36;;;;;;;4.03;1.75;;;;;;;19.22;56.45;100994.31;5041562;28;20028;-63
2022/10/23 06:06:02;;;;;;;3.78;2.00;;;;;;;19.17;56.28;100988.59;5041028;28;20020;-63
2022/10/23 06:08:28;;;;;;;3.97;1.77;;;;;;;19.26;56.39;100992.25;5040751;28;20499;-63
2022/10/23 06:10:53;;;;;;;3.70;1.52;;;;;;;19.26;56.24;100993.06;5041071;28;20025;-62
2022/10/23 06:13:18;;;;;;;4.80;1.87;;;;;;;19.21;56.29;100985.53;5041323;28;20040;-61
2022/10/23 06:15:44;;;;;;;6.03;1.73;;;;;;;19.26;56.24;100986.97;5041076;28;20262;-61
2022/10/23 06:18:09;;;;;;;4.93;1.80;;;;;;;19.28;55.92;100995.59;5040900;28;20280;-61
2022/10/23 06:20:36;;;;;;;6.50;2.17;;;;;;;19.24;56.33;100983.63;5040997;28;20769;-62
2022/10/23 06:23:02;;;;;;;3.83;1.65;;;;;;;19.27;56.13;100984.19;5040613;28;20079;-60
2022/10/23 06:25:27;;;;;;;3.83;1.70;;;;;;;19.21;56.08;100967.03;5041091;28;20713;-62
2022/10/23 06:27:52;;;;;;;3.35;1.50;;;;;;;19.24;56.28;100965.97;5040906;28;20055;-63
2022/10/23 06:30:18;;;;;;;4.23;1.80;;;;;;;19.17;56.44;100957.72;5040878;28;20462;-60
2022/10/23 06:32:43;;;;;;;5.32;1.77;;;;;;;19.31;55.99;100980.34;5040869;28;20258;-61
2022/10/23 06:35:08;;;;;;;5.07;1.83;;;;;;;19.25;55.98;100961.50;5041198;28;20075;-61
2022/10/23 06:37:33;;;;;;;3.80;1.77;;;;;;;19.27;56.13;100957.78;5042290;28;20270;-63
2022/10/23 06:39:59;;;;;;;3.30;1.50;;;;;;;19.32;56.13;100966.13;5045162;28;20083;-63
2022/10/23 06:42:24;;;;;;;4.32;1.58;;;;;;;19.32;56.07;100960.84;5044889;28;20256;-62
2022/10/23 06:44:49;;;;;;;3.67;1.63;;;;;;;19.34;55.94;100956.31;5044786;28;20119;-62
2022/10/23 06:47:15;;;;;;;6.05;1.92;;;;;;;19.25;55.90;100941.22;5044695;28;20055;-62
2022/10/23 06:49:40;;;;;;;3.35;1.40;;;;;;;19.35;56.00;100952.66;5044749;28;20033;-63
2022/10/23 06:52:05;;;;;;;4.60;1.90;;;;;;;19.33;56.09;100946.69;5044497;28;20029;-61
2022/10/23 06:54:31;;;;;;;4.18;1.73;;;;;;;19.34;56.34;100945.72;5044800;28;20331;-62
2022/10/23 06:56:56;;;;;;;3.83;1.67;;;;;;;19.37;55.92;100953.38;5044505;28;20044;-61
2022/10/23 06:59:21;;;;;;;4.07;1.70;;;;;;;19.38;55.98;100955.06;5045018;28;20040;-62
2022/10/23 07:01:47;;;;;;;3.47;1.73;;;;;;;19.33;56.05;100933.47;5044627;28;20465;-62
2022/10/23 07:04:15;;;;;;;3.88;1.50;;;;;;;19.36;56.40;100940.31;5044575;28;20037;-62
2022/10/23 07:06:41;;;;;;;3.42;1.58;;;;;;;19.42;56.32;100955.63;5044307;28;20095;-60
2022/10/23 07:09:07;;;;;;;3.80;1.60;;;;;;;19.34;56.35;100945.72;5044507;28;20025;-61
2022/10/23 07:11:33;;;;;;;3.38;1.50;;;;;;;19.42;56.47;100945.06;5044207;28;20957;-60
2022/10/23 07:13:58;;;;;;;3.67;1.70;;;;;;;19.44;56.95;100947.56;5042629;28;20047;-60
2022/10/23 07:16:23;;;;;;;3.47;1.52;;;;;;;19.45;56.55;100947.44;5043592;28;20465;-60
2022/10/23 07:18:57;;;;;;;6.20;1.42;;;;;;;19.38;56.78;100923.34;5043341;28;20017;-65
2022/10/23 07:21:23;;;;;;;4.82;1.77;;;;;;;19.52;57.09;100934.56;5043846;28;20021;-62
2022/10/23 07:23:49;;;;;;;4.32;1.70;;;;;;;19.49;56.92;100925.06;5044077;28;20037;-61
2022/10/23 07:26:15;;;;;;;3.63;1.35;;;;;;;19.47;56.67;100916.44;5044356;28;20094;-62
2022/10/23 07:28:42;;;;;;;2.67;1.33;;;;;;;19.55;56.55;100931.63;5044011;28;20072;-62
2022/10/23 07:31:08;;;;;;;5.10;1.42;;;;;;;19.52;56.79;100918.69;5043756;28;20033;-61
2022/10/23 07:33:33;;;;;;;4.78;1.73;;;;;;;19.55;56.75;100928.97;5043959;28;20036;-64
2022/10/23 07:35:59;;;;;;;4.20;1.52;;;;;;;19.50;56.91;100910.03;5043591;28;20424;-62
2022/10/23 07:38:24;;;;;;;3.58;1.42;;;;;;;19.56;57.07;100920.91;5042225;28;20428;-62
2022/10/23 07:40:50;;;;;;;5.03;1.60;;;;;;;19.56;56.91;100922.72;5043437;28;20940;-63
2022/10/23 07:43:17;;;;;;;4.63;1.60;;;;;;;19.51;56.95;100911.72;5043913;28;20056;-62
2022/10/23 07:45:45;;;;;;;3.95;1.48;;;;;;;19.51;57.06;100915.19;5043463;28;20087;-62
2022/10/23 07:48:10;;;;;;;3.10;1.13;;;;;;;19.57;57.34;100916.50;5043057;28;20131;-62
2022/10/23 07:50:37;;;;;;;4.07;1.43;;;;;;;19.51;56.77;100899.34;5042932;28;20104;-61
2022/10/23 07:53:02;;;;;;;3.95;1.33;;;;;;;19.59;56.85;100914.53;5043392;28;20389;-61
2022/10/23 07:55:28;;;;;;;4.22;1.75;;;;;;;19.52;57.17;100906.31;5043809;28;20579;-64
2022/10/23 07:57:53;;;;;;;4.60;1.70;;;;;;;19.52;57.02;100908.94;5041905;28;20044;-62
2022/10/23 08:00:18;;;;;;;4.00;1.42;;;;;;;19.60;57.17;100916.22;5043365;28;20300;-61
2022/10/23 08:02:43;;;;;;;3.40;1.43;;;;;;;19.61;57.19;100917.06;5043316;28;20037;-63
2022/10/23 08:05:09;;;;;;;4.70;1.60;;;;;;;19.62;57.06;100913.44;5043206;28;20813;-61
2022/10/23 08:07:34;;;;;;;4.25;1.50;;;;;;;19.57;57.34;100905.91;5042888;28;20621;-63
2022/10/23 08:09:59;;;;;;;3.72;1.60;;;;;;;19.62;57.19;100911.63;5043301;28;20052;-62
2022/10/23 08:12:25;;;;;;;6.50;1.50;;;;;;;19.58;57.13;100902.28;5043026;28;20048;-63
2022/10/23 08:14:50;;;;;;;4.10;1.48;;;;;;;19.56;57.16;100901.59;5043246;28;20362;-63
2022/10/23 08:17:15;;;;;;;3.10;1.40;;;;;;;19.58;57.04;100900.50;5042940;28;20048;-63
2022/10/23 08:19:45;;;;;;;3.67;1.50;;;;;;;19.59;56.98;100898.69;5042958;28;20029;-63
2022/10/23 08:22:10;;;;;;;4.25;1.40;;;;;;;19.58;57.01;100900.50;5042792;28;20103;-63
2022/10/23 08:24:36;;;;;;;3.33;1.40;;;;;;;19.63;57.10;100905.38;5042710;28;20423;-62
2022/10/23 08:27:01;;;;;;;3.40;1.50;;;;;;;19.61;57.26;100891.44;5042235;28;20028;-62
2022/10/23 08:29:26;;;;;;;5.33;1.80;;;;;;;19.58;57.25;100889.91;5042531;28;20606;-64
2022/10/23 08:31:55;;;;;;;3.47;1.38;;;;;;;19.65;57.27;100908.72;5041149;28;20300;-69
2022/10/23 08:34:20;;;;;;;4.57;1.42;;;;;;;19.64;57.22;100895.63;5042030;28;20025;-70
2022/10/23 08:36:45;;;;;;;2.83;1.40;;;;;;;19.67;57.41;100898.84;5042198;28;20033;-68
2022/10/23 08:39:11;;;;;;;4.37;1.70;;;;;;;19.66;57.29;100889.25;5041690;28;20033;-71
2022/10/23 08:41:40;;;;;;;4.13;1.50;;;;;;;19.67;57.28;100876.88;5042490;28;20269;-69
2022/10/23 08:44:19;;;;;;;5.47;1.50;;;;;;;19.78;57.14;100883.91;5042224;28;20518;-71
2022/10/23 08:46:51;;;;;;;4.97;1.50;;;;;;;19.72;56.81;100872.84;5041320;28;20028;-62
2022/10/23 08:49:23;;;;;;;3.38;1.50;;;;;;;19.78;56.98;100881.25;5040938;28;20119;-61
2022/10/23 08:51:53;;;;;;;5.50;1.55;;;;;;;19.75;56.96;100874.38;5042367;28;20036;-61
2022/10/23 08:54:30;;;;;;;7.90;1.70;;;;;;;19.77;57.08;100877.75;5041605;28;20401;-62
2022/10/23 08:57:08;;;;;;;4.45;1.45;;;;;;;19.76;57.21;100865.53;5041474;28;20400;-61
2022/10/23 08:59:42;;;;;;;4.18;1.50;;;;;;;19.77;56.88;100874.28;5042275;28;20025;-61
2022/10/23 09:02:23;;;;;;;3.33;1.30;;;;;;;19.78;56.95;100871.50;5041466;28;20036;-62
2022/10/23 09:04:50;;;;;;;2.97;1.20;;;;;;;19.78;57.11;100857.47;5042027;28;20448;-62
2022/10/23 09:07:38;;;;;;;5.32;1.50;;;;;;;19.79;57.16;100856.47;5042045;28;20048;-60
2022/10/23 09:10:29;;;;;;;6.70;1.65;;;;;;;19.78;57.00;100850.34;5041943;28;20041;-61
2022/10/23 09:13:20;;;;;;;2.92;1.40;;;;;;;19.71;57.19;100835.94;5041919;28;20043;-61
2022/10/23 09:15:55;;;;;;;3.88;1.70;;;;;;;19.71;57.05;100835.94;5042058;28;20055;-60
2022/10/23 09:18:23;;;;;;;4.50;1.63;;;;;;;19.70;56.79;100832.47;5041771;28;20041;-60
2022/10/23 09:20:51;;;;;;;3.65;1.35;;;;;;;19.78;56.89;100838.94;5041815;28;20068;-61
2022/10/23 09:23:23;;;;;;;5.32;1.40;;;;;;;19.77;57.21;100839.91;5104479;27;20151;-60
2022/10/23 09:25:55;;;;;;;3.03;1.20;;;;;;;19.72;56.89;100824.41;5098879;28;20039;-61
2022/10/23 09:28:26;;;;;;;4.63;1.42;;;;;;;19.75;57.04;100830.25;5099009;28;20463;-61
2022/10/23 09:30:52;;;;;;;4.88;1.52;;;;;;;19.77;57.01;100824.88;5081298;28;20063;-61
2022/10/23 09:33:29;;;;;;;4.18;1.38;;;;;;;19.77;57.20;100826.69;5087761;28;20035;-62
2022/10/23 09:36:04;;;;;;;3.92;1.50;;;;;;;19.74;57.27;100809.25;5090830;28;20127;-66
2022/10/23 09:38:36;;;;;;;4.53;1.40;;;;;;;19.69;57.11;100800.88;5095487;28;20028;-60
2022/10/23 09:41:09;;;;;;;3.35;1.40;;;;;;;19.74;56.94;100798.66;5078253;28;20487;-60
2022/10/23 09:43:35;;;;;;;4.18;1.50;;;;;;;19.74;57.20;100796.03;5078097;28;20025;-60
2022/10/23 09:46:05;;;;;;;4.97;1.75;;;;;;;19.71;57.12;100801.56;5078545;28;20071;-60
2022/10/23 09:48:32;;;;;;;6.38;1.65;;;;;;;19.73;57.01;100805.78;5083172;28;20032;-60
2022/10/23 09:51:03;;;;;;;4.88;1.77;;;;;;;19.72;57.28;100803.25;5096730;28;20035;-62
2022/10/23 09:53:31;;;;;;;4.07;1.70;;;;;;;19.73;57.10;100802.31;5085183;28;20034;-60
2022/10/23 09:56:10;;;;;;;6.85;1.55;;;;;;;19.68;57.01;100793.94;5095067;28;20039;-63
2022/10/23 09:58:42;;;;;;;5.45;1.55;;;;;;;19.70;57.34;100787.53;5080904;28;20063;-59
2022/10/23 10:01:21;;;;;;;3.10;1.30;;;;;;;19.68;57.14;100772.78;5084159;28;20066;-60
2022/10/23 10:03:49;;;;;;;4.55;1.40;;;;;;;19.66;57.13;100774.72;5097635;28;20051;-60
2022/10/23 10:06:21;;;;;;;3.25;1.35;;;;;;;19.66;57.23;100762.34;5097797;28;20115;-61
2022/10/23 10:08:50;;;;;;;6.55;1.88;;;;;;;19.71;56.87;100764.56;5087229;28;20523;-61
2022/10/23 10:11:26;;;;;;;4.25;1.42;;;;;;;19.63;56.94;100746.75;5081905;28;20165;-60
2022/10/23 10:14:15;;;;;;;3.13;1.30;;;;;;;19.70;57.07;100749.69;5077589;28;20028;-60
2022/10/23 10:16:49;;;;;;;3.58;1.30;;;;;;;19.64;56.97;100734.38;5077678;28;20032;-59
2022/10/23 10:19:27;;;;;;;2.22;1.23;;;;;;;19.63;57.01;100730.91;5083685;28;20059;-61
2022/10/23 10:22:15;;;;;;;4.18;1.42;;;;;;;19.70;57.09;100737.28;5077183;28;20052;-60
2022/10/23 10:24:57;;;;;;;4.97;1.52;;;;;;;19.67;56.93;100724.34;5077772;28;20059;-63
2022/10/23 10:27:41;;;;;;;3.95;1.65;;;;;;;19.71;57.05;100732.84;5078117;28;20036;-61
2022/10/23 10:30:13;;;;;;;4.28;1.55;;;;;;;19.65;57.09;100728.94;5076817;28;20440;-59
2022/10/23 10:32:59;;;;;;;6.78;1.40;;;;;;;19.70;56.98;100750.50;5076884;28;20072;-65
2022/10/23 10:35:36;;;;;;;5.57;1.35;;;;;;;19.71;57.22;100740.75;5075357;28;20031;-71
2022/10/23 10:38:10;;;;;;;4.90;1.52;;;;;;;19.75;57.20;100735.06;5083612;28;20039;-71
2022/10/23 10:40:44;;;;;;;;;;;;;;;19.77;57.19;100729.69;5072434;28;20066;-61
2022/10/23 10:43:22;;;;;;;3.60;1.50;;;;;;;19.70;57.38;100716.16;5075055;28;19915;-63
2022/10/23 10:46:04;;;;;;;3.10;1.30;;;;;;;19.74;57.19;100712.25;5076988;28;20043;-62
2022/10/23 10:48:47;;;;;;;4.50;1.67;;;;;;;19.75;57.47;100707.81;5078116;28;20043;-62
2022/10/23 10:51:28;;;;;;;3.70;1.30;;;;;;;19.84;57.31;100706.19;5078139;28;20051;-65
2022/10/23 10:53:54;;;;;;;3.05;1.30;;;;;;;19.86;57.18;100710.34;5083571;28;20123;-62
2022/10/23 10:56:23;;;;;;;3.80;1.60;;;;;;;19.86;57.27;100701.59;5083700;28;20127;-62
2022/10/23 10:58:51;;;;;;;5.30;1.45;;;;;;;19.63;57.28;100656.88;5083269;28;20111;-64
2022/10/23 11:01:35;;;;;;;3.83;1.30;;;;;;;19.88;57.32;100695.16;5083624;28;20036;-61
2022/10/23 11:04:21;;;;;;;5.43;1.63;;;;;;;19.88;57.54;100710.19;5078128;28;20061;-62
2022/10/23 11:06:50;;;;;;;4.45;1.23;;;;;;;19.85;57.38;100698.09;5074743;28;20039;-65
2022/10/23 11:09:19;;;;;;;3.50;1.50;;;;;;;19.86;57.02;100693.66;5068765;28;20036;-65
2022/10/23 11:11:46;;;;;;;3.75;1.50;;;;;;;19.85;57.18;100690.19;5083425;28;20083;-61
2022/10/23 11:14:20;;;;;;;2.78;1.25;;;;;;;19.88;57.31;100697.81;5081347;28;20038;-72
2022/10/23 11:17:00;;;;;;;4.60;1.55;;;;;;;19.90;57.42;100689.72;5069581;28;20099;-73
2022/10/23 11:19:36;;;;;;;4.00;1.30;;;;;;;19.92;57.41;100695.72;5062390;28;20066;-71
2022/10/23 11:22:23;;;;;;;4.22;1.40;;;;;;;19.96;57.29;100697.09;5064829;28;20059;-69
2022/10/23 11:25:31;;;;;;;4.80;1.40;;;;;;;20.01;57.21;100670.22;5080087;28;20140;-68
2022/10/23 11:28:02;;;;;;;5.03;1.48;;;;;;;20.02;57.28;100671.91;5072065;28;20039;-67
2022/10/23 11:31:03;;;;;;;3.60;1.55;;;;;;;20.09;57.27;100665.94;5082341;28;20039;-70
2022/10/23 11:34:06;;;;;;;3.38;1.40;;;;;;;20.15;56.92;100655.75;5077187;28;20082;-70
2022/10/23 11:37:00;;;;;;;3.83;1.20;;;;;;;20.23;56.39;100643.44;5073872;28;20142;-71
2022/10/23 11:39:28;;;;;;;5.45;1.63;;;;;;;20.21;56.43;100626.91;5080348;28;20043;-72